Shoyo Maru — JD2149 — position and weather

sailwx.info

Track history (hours):
 
Tides and Currents Weather Stations Pressure Air Temp Water Temp Dewpoint Dewpoint Depression Visibility Wind Speed Wind Dir Waves Ship Positions

Shoyo Maru

Last reported at 2018-Jan-24 04:50 UTC. Time now 2018-Jan-24 11:22 UTC.
Position N 34°04' E 134°52'.

Length 69 m; draft 4 m.

Type: Cargo ship. MMSI: 431101122.

Date/timePositionNaut miles runAvg speedWind from/ knotsBaromVisibWave heightAir tempDewpointWater temp
2018-Jan-24 04:50N 34°04' E 134°52'411.1
2018-Jan-24 04:30N 34°08' E 134°54'511.1
2018-Jan-24 04:00N 34°12' E 134°57'510.0
2018-Jan-24 03:30N 34°17' E 134°58'510.7
2018-Jan-24 03:00N 34°22' E 135°01'611.0
2018-Jan-24 02:30N 34°28' E 135°02'510.6
2018-Jan-24 02:00N 34°33' E 135°04'4 8.6
2018-Jan-24 01:30N 34°37' E 135°01'510.8
2018-Jan-24 01:00N 34°35' E 134°55'611.7
2018-Jan-24 00:30N 34°33' E 134°48'611.7
2018-Jan-24 00:00N 34°31' E 134°42'611.8
2018-Jan-23 23:31N 34°29' E 134°35'611.7
2018-Jan-23 23:00N 34°26' E 134°29'8611.7
2018-Jan-23 15:41N 34°05' E 132°48'412.8
2018-Jan-23 15:23N 34°02' E 132°45'512.4
2018-Jan-23 15:00N 33°57' E 132°43'812.8
2018-Jan-23 14:24N 33°52' E 132°36'512.2
2018-Jan-23 14:00N 33°49' E 132°32'3311.3
2018-Jan-23 11:05N 33°44' E 131°52'111.2
2018-Jan-23 11:00N 33°44' E 131°51'611.8
2018-Jan-23 10:30N 33°45' E 131°44'611.9
2018-Jan-23 10:00N 33°47' E 131°37'611.9
2018-Jan-23 09:30N 33°48' E 131°30'611.8
2018-Jan-23 09:01N 33°49' E 131°23'612.0
2018-Jan-23 08:31N 33°50' E 131°16'612.0
2018-Jan-23 08:00N 33°53' E 131°10'612.1
2018-Jan-23 07:31N 33°56' E 131°04'510.4
2018-Jan-23 07:01N 33°58' E 130°58'5 9.4
2018-Jan-23 06:31N 33°54' E 130°54'4 8.0
2018-Jan-23 06:00N 33°54' E 130°49'4 7.5
2018-Jan-23 05:29N 33°52' E 130°45'0 0.0
2018-Jan-23 04:59N 33°52' E 130°45'0 0.0
2018-Jan-23 04:26N 33°52' E 130°45'0 0.0
2018-Jan-23 03:59N 33°52' E 130°45'0 0.0
2018-Jan-23 03:29N 33°52' E 130°45'0 0.0
2018-Jan-23 02:59N 33°52' E 130°45'0 0.0
2018-Jan-23 02:23N 33°52' E 130°45'0 0.0
2018-Jan-23 01:59N 33°52' E 130°45'0 0.0
2018-Jan-23 01:29N 33°52' E 130°45'0 0.0
2018-Jan-23 00:59N 33°52' E 130°45'0 0.0
2018-Jan-23 00:29N 33°52' E 130°45'0 0.0
2018-Jan-23 00:00N 33°52' E 130°45'0 0.0
2018-Jan-22 23:30N 33°52' E 130°45'3 6.1
2018-Jan-22 23:00N 33°54' E 130°48'4 7.2
2018-Jan-22 22:31N 33°56' E 130°51'0 0.2
2018-Jan-22 21:59N 33°56' E 130°51'0 0.0
2018-Jan-22 21:29N 33°56' E 130°51'0 0.0
2018-Jan-22 20:59N 33°56' E 130°51'0 0.0
2018-Jan-22 20:29N 33°56' E 130°51'0 0.0
2018-Jan-22 19:59N 33°56' E 130°51'0 0.0
2018-Jan-22 19:26N 33°56' E 130°51'0 0.0
2018-Jan-22 18:59N 33°56' E 130°51'0 0.0
2018-Jan-22 18:29N 33°56' E 130°51'0 0.1
2018-Jan-22 17:59N 33°56' E 130°51'0 0.0
2018-Jan-22 17:29N 33°56' E 130°51'0 0.0
2018-Jan-22 16:59N 33°56' E 130°51'0 0.0
2018-Jan-22 16:29N 33°56' E 130°51'0 0.1
2018-Jan-22 15:59N 33°56' E 130°51'0 0.0
2018-Jan-22 15:29N 33°56' E 130°51'0 0.0
2018-Jan-22 14:59N 33°56' E 130°51'0 0.0
2018-Jan-22 14:29N 33°56' E 130°51'0 0.0
2018-Jan-22 13:59N 33°56' E 130°51'0 0.1
2018-Jan-22 13:29N 33°56' E 130°51'0 0.0
2018-Jan-22 12:59N 33°56' E 130°51'0 0.1
2018-Jan-22 12:31N 33°56' E 130°51'4 8.9
2018-Jan-22 12:00N 33°58' E 130°46'612.1
2018-Jan-22 11:30N 33°58' E 130°39'611.9
2018-Jan-22 11:00N 33°58' E 130°32'612.0
2018-Jan-22 10:30N 33°57' E 130°25'612.5
2018-Jan-22 10:01N 33°53' E 130°19'612.3
2018-Jan-22 09:31N 33°49' E 130°13'612.3
2018-Jan-22 09:00N 33°45' E 130°08'612.5
2018-Jan-22 08:30N 33°40' E 130°02'712.4
2018-Jan-22 07:55N 33°35' E 129°56'7 0.2
2018-Jan-20 16:46N 33°39' E 130°03'310.9
2018-Jan-20 16:30N 33°41' E 130°05'611.1
2018-Jan-20 16:00N 33°45' E 130°11'510.9
2018-Jan-20 15:30N 33°47' E 130°17'611.1
2018-Jan-20 15:00N 33°50' E 130°22'510.8
2018-Jan-20 14:30N 33°53' E 130°27'510.7
2018-Jan-20 14:00N 33°56' E 130°33'611.2
2018-Jan-20 13:30N 33°58' E 130°39'611.3
2018-Jan-20 13:00N 33°58' E 130°46'611.1
2018-Jan-20 12:30N 33°56' E 130°52'4 7.3
2018-Jan-20 12:00N 33°57' E 130°57'4 8.1
2018-Jan-20 11:30N 33°58' E 131°01'611.6
2018-Jan-20 11:00N 33°55' E 131°07'612.2
2018-Jan-20 10:30N 33°52' E 131°13'612.1
2018-Jan-20 10:00N 33°50' E 131°20'611.8
2018-Jan-20 09:30N 33°47' E 131°26'611.7
2018-Jan-20 09:00N 33°44' E 131°33'611.8
2018-Jan-20 08:30N 33°41' E 131°39'611.9
2018-Jan-20 08:00N 33°37' E 131°44'611.2
2018-Jan-20 07:30N 33°33' E 131°48'610.8
2018-Jan-20 06:57N 33°27' E 131°51'510.3
2018-Jan-20 06:30N 33°24' E 131°54'7 0.6
2018-Jan-19 19:53N 33°19' E 131°60'4 9.2
2018-Jan-19 19:24N 33°22' E 131°56'713.3
2018-Jan-19 18:54N 33°28' E 131°52'613.5
2018-Jan-19 18:28N 33°33' E 131°48'613.5
2018-Jan-19 18:00N 33°38' E 131°44'713.5
2018-Jan-19 17:30N 33°42' E 131°38'713.3
2018-Jan-19 17:00N 33°45' E 131°31'713.2
2018-Jan-19 16:31N 33°47' E 131°23'713.0
2018-Jan-19 16:00N 33°50' E 131°16'612.9
2018-Jan-19 15:30N 33°53' E 131°09'612.6
2018-Jan-19 15:00N 33°57' E 131°03'5 9.6
2018-Jan-19 14:30N 33°57' E 130°57'4 8.5
2018-Jan-19 14:00N 33°55' E 130°54'510.8
2018-Jan-19 13:30N 33°58' E 130°48'612.7
2018-Jan-19 13:00N 33°58' E 130°41'612.6
2018-Jan-19 12:30N 33°57' E 130°33'612.4
2018-Jan-19 12:00N 33°56' E 130°26'612.5
2018-Jan-19 11:30N 33°53' E 130°19'612.4
2018-Jan-19 10:59N 33°50' E 130°13'612.6
2018-Jan-19 10:30N 33°46' E 130°07'1612.3
2018-Jan-19 09:10N 33°37' E 129°50'2 0.1
2018-Jan-18 17:37N 33°39' E 129°52'711.2
2018-Jan-18 16:59N 33°42' E 129°59'511.2
2018-Jan-18 16:30N 33°45' E 130°05'611.1
2018-Jan-18 16:00N 33°48' E 130°11'511.0
2018-Jan-18 15:30N 33°51' E 130°16'611.1
2018-Jan-18 15:00N 33°54' E 130°22'510.6
2018-Jan-18 14:30N 33°57' E 130°27'511.0
2018-Jan-18 14:00N 33°58' E 130°34'611.7
2018-Jan-18 13:30N 33°58' E 130°41'611.7
2018-Jan-18 13:00N 33°58' E 130°48'611.5
2018-Jan-18 12:31N 33°55' E 130°54'611.9
2018-Jan-18 12:00N 33°59' E 130°60'611.9
2018-Jan-18 11:30N 33°56' E 131°06'612.3
2018-Jan-18 11:00N 33°52' E 131°12'612.1
2018-Jan-18 10:30N 33°51' E 131°19'612.2
2018-Jan-18 10:00N 33°49' E 131°26'612.1
2018-Jan-18 09:30N 33°47' E 131°33'611.2
2018-Jan-18 09:00N 33°43' E 131°37'612.6
2018-Jan-18 08:30N 33°39' E 131°43'612.0
2018-Jan-18 08:00N 33°34' E 131°47'811.4
2018-Jan-18 07:21N 33°28' E 131°52'411.1
2018-Jan-18 06:57N 33°24' E 131°55'510.7
2018-Jan-18 06:27N 33°20' E 131°58'  
Track history (hours):
 
Tides and Currents Weather Stations Pressure Air Temp Water Temp Dewpoint Dewpoint Depression Visibility Wind Speed Wind Dir Waves Ship Positions

Shoyo Maru

Last reported at 2018-Jan-24 04:50 UTC. Time now 2018-Jan-24 11:22 UTC.
Position N 34°04' E 134°52'.

Length 69 m; draft 4 m.

Type: Cargo ship. MMSI: 431101122.

Date/timePositionNaut miles runAvg speedWind from/ knotsBaromVisibWave heightAir tempDewpointWater temp
2018-Jan-24 04:50N 34°04' E 134°52'411.1
2018-Jan-24 04:30N 34°08' E 134°54'511.1
2018-Jan-24 04:00N 34°12' E 134°57'510.0
2018-Jan-24 03:30N 34°17' E 134°58'510.7
2018-Jan-24 03:00N 34°22' E 135°01'611.0
2018-Jan-24 02:30N 34°28' E 135°02'510.6
2018-Jan-24 02:00N 34°33' E 135°04'4 8.6
2018-Jan-24 01:30N 34°37' E 135°01'510.8
2018-Jan-24 01:00N 34°35' E 134°55'611.7
2018-Jan-24 00:30N 34°33' E 134°48'611.7
2018-Jan-24 00:00N 34°31' E 134°42'611.8
2018-Jan-23 23:31N 34°29' E 134°35'611.7
2018-Jan-23 23:00N 34°26' E 134°29'8611.7
2018-Jan-23 15:41N 34°05' E 132°48'412.8
2018-Jan-23 15:23N 34°02' E 132°45'512.4
2018-Jan-23 15:00N 33°57' E 132°43'812.8
2018-Jan-23 14:24N 33°52' E 132°36'512.2
2018-Jan-23 14:00N 33°49' E 132°32'3311.3
2018-Jan-23 11:05N 33°44' E 131°52'111.2
2018-Jan-23 11:00N 33°44' E 131°51'611.8
2018-Jan-23 10:30N 33°45' E 131°44'611.9
2018-Jan-23 10:00N 33°47' E 131°37'611.9
2018-Jan-23 09:30N 33°48' E 131°30'611.8
2018-Jan-23 09:01N 33°49' E 131°23'612.0
2018-Jan-23 08:31N 33°50' E 131°16'612.0
2018-Jan-23 08:00N 33°53' E 131°10'612.1
2018-Jan-23 07:31N 33°56' E 131°04'510.4
2018-Jan-23 07:01N 33°58' E 130°58'5 9.4
2018-Jan-23 06:31N 33°54' E 130°54'4 8.0
2018-Jan-23 06:00N 33°54' E 130°49'4 7.5
2018-Jan-23 05:29N 33°52' E 130°45'0 0.0
2018-Jan-23 04:59N 33°52' E 130°45'0 0.0
2018-Jan-23 04:26N 33°52' E 130°45'0 0.0
2018-Jan-23 03:59N 33°52' E 130°45'0 0.0
2018-Jan-23 03:29N 33°52' E 130°45'0 0.0
2018-Jan-23 02:59N 33°52' E 130°45'0 0.0
2018-Jan-23 02:23N 33°52' E 130°45'0 0.0
2018-Jan-23 01:59N 33°52' E 130°45'0 0.0
2018-Jan-23 01:29N 33°52' E 130°45'0 0.0
2018-Jan-23 00:59N 33°52' E 130°45'0 0.0
2018-Jan-23 00:29N 33°52' E 130°45'0 0.0
2018-Jan-23 00:00N 33°52' E 130°45'0 0.0
2018-Jan-22 23:30N 33°52' E 130°45'3 6.1
2018-Jan-22 23:00N 33°54' E 130°48'4 7.2
2018-Jan-22 22:31N 33°56' E 130°51'0 0.2
2018-Jan-22 21:59N 33°56' E 130°51'0 0.0
2018-Jan-22 21:29N 33°56' E 130°51'0 0.0
2018-Jan-22 20:59N 33°56' E 130°51'0 0.0
2018-Jan-22 20:29N 33°56' E 130°51'0 0.0
2018-Jan-22 19:59N 33°56' E 130°51'0 0.0
2018-Jan-22 19:26N 33°56' E 130°51'0 0.0
2018-Jan-22 18:59N 33°56' E 130°51'0 0.0
2018-Jan-22 18:29N 33°56' E 130°51'0 0.1
2018-Jan-22 17:59N 33°56' E 130°51'0 0.0
2018-Jan-22 17:29N 33°56' E 130°51'0 0.0
2018-Jan-22 16:59N 33°56' E 130°51'0 0.0
2018-Jan-22 16:29N 33°56' E 130°51'0 0.1
2018-Jan-22 15:59N 33°56' E 130°51'0 0.0
2018-Jan-22 15:29N 33°56' E 130°51'0 0.0
2018-Jan-22 14:59N 33°56' E 130°51'0 0.0
2018-Jan-22 14:29N 33°56' E 130°51'0 0.0
2018-Jan-22 13:59N 33°56' E 130°51'0 0.1
2018-Jan-22 13:29N 33°56' E 130°51'0 0.0
2018-Jan-22 12:59N 33°56' E 130°51'0 0.1
2018-Jan-22 12:31N 33°56' E 130°51'4 8.9
2018-Jan-22 12:00N 33°58' E 130°46'612.1
2018-Jan-22 11:30N 33°58' E 130°39'611.9
2018-Jan-22 11:00N 33°58' E 130°32'612.0
2018-Jan-22 10:30N 33°57' E 130°25'612.5
2018-Jan-22 10:01N 33°53' E 130°19'612.3
2018-Jan-22 09:31N 33°49' E 130°13'612.3
2018-Jan-22 09:00N 33°45' E 130°08'612.5
2018-Jan-22 08:30N 33°40' E 130°02'712.4
2018-Jan-22 07:55N 33°35' E 129°56'7 0.2
2018-Jan-20 16:46N 33°39' E 130°03'310.9
2018-Jan-20 16:30N 33°41' E 130°05'611.1
2018-Jan-20 16:00N 33°45' E 130°11'510.9
2018-Jan-20 15:30N 33°47' E 130°17'611.1
2018-Jan-20 15:00N 33°50' E 130°22'510.8
2018-Jan-20 14:30N 33°53' E 130°27'510.7
2018-Jan-20 14:00N 33°56' E 130°33'611.2
2018-Jan-20 13:30N 33°58' E 130°39'611.3
2018-Jan-20 13:00N 33°58' E 130°46'611.1
2018-Jan-20 12:30N 33°56' E 130°52'4 7.3
2018-Jan-20 12:00N 33°57' E 130°57'4 8.1
2018-Jan-20 11:30N 33°58' E 131°01'611.6
2018-Jan-20 11:00N 33°55' E 131°07'612.2
2018-Jan-20 10:30N 33°52' E 131°13'612.1
2018-Jan-20 10:00N 33°50' E 131°20'611.8
2018-Jan-20 09:30N 33°47' E 131°26'611.7
2018-Jan-20 09:00N 33°44' E 131°33'611.8
2018-Jan-20 08:30N 33°41' E 131°39'611.9
2018-Jan-20 08:00N 33°37' E 131°44'611.2
2018-Jan-20 07:30N 33°33' E 131°48'610.8
2018-Jan-20 06:57N 33°27' E 131°51'510.3
2018-Jan-20 06:30N 33°24' E 131°54'7 0.6
2018-Jan-19 19:53N 33°19' E 131°60'4 9.2
2018-Jan-19 19:24N 33°22' E 131°56'713.3
2018-Jan-19 18:54N 33°28' E 131°52'613.5
2018-Jan-19 18:28N 33°33' E 131°48'613.5
2018-Jan-19 18:00N 33°38' E 131°44'713.5
2018-Jan-19 17:30N 33°42' E 131°38'713.3
2018-Jan-19 17:00N 33°45' E 131°31'713.2
2018-Jan-19 16:31N 33°47' E 131°23'713.0
2018-Jan-19 16:00N 33°50' E 131°16'612.9
2018-Jan-19 15:30N 33°53' E 131°09'612.6
2018-Jan-19 15:00N 33°57' E 131°03'5 9.6
2018-Jan-19 14:30N 33°57' E 130°57'4 8.5
2018-Jan-19 14:00N 33°55' E 130°54'510.8
2018-Jan-19 13:30N 33°58' E 130°48'612.7
2018-Jan-19 13:00N 33°58' E 130°41'612.6
2018-Jan-19 12:30N 33°57' E 130°33'612.4
2018-Jan-19 12:00N 33°56' E 130°26'612.5
2018-Jan-19 11:30N 33°53' E 130°19'612.4
2018-Jan-19 10:59N 33°50' E 130°13'612.6
2018-Jan-19 10:30N 33°46' E 130°07'1612.3
2018-Jan-19 09:10N 33°37' E 129°50'2 0.1
2018-Jan-18 17:37N 33°39' E 129°52'711.2
2018-Jan-18 16:59N 33°42' E 129°59'511.2
2018-Jan-18 16:30N 33°45' E 130°05'611.1
2018-Jan-18 16:00N 33°48' E 130°11'511.0
2018-Jan-18 15:30N 33°51' E 130°16'611.1
2018-Jan-18 15:00N 33°54' E 130°22'510.6
2018-Jan-18 14:30N 33°57' E 130°27'511.0
2018-Jan-18 14:00N 33°58' E 130°34'611.7
2018-Jan-18 13:30N 33°58' E 130°41'611.7
2018-Jan-18 13:00N 33°58' E 130°48'611.5
2018-Jan-18 12:31N 33°55' E 130°54'611.9
2018-Jan-18 12:00N 33°59' E 130°60'611.9
2018-Jan-18 11:30N 33°56' E 131°06'612.3
2018-Jan-18 11:00N 33°52' E 131°12'612.1
2018-Jan-18 10:30N 33°51' E 131°19'612.2
2018-Jan-18 10:00N 33°49' E 131°26'612.1
2018-Jan-18 09:30N 33°47' E 131°33'611.2
2018-Jan-18 09:00N 33°43' E 131°37'612.6
2018-Jan-18 08:30N 33°39' E 131°43'612.0
2018-Jan-18 08:00N 33°34' E 131°47'811.4
2018-Jan-18 07:21N 33°28' E 131°52'411.1
2018-Jan-18 06:57N 33°24' E 131°55'510.7
2018-Jan-18 06:27N 33°20' E 131°58'  

Dump ship's entire track history